Philadelphia, PA

8:29 PM EDT on August 29, 2015 (GMT -0400)
Somerton | | Change Station
CLOSE
Current Station
Personal Weather Station
Location: Philadelphia, PA
Elevation: 167 ft
Nearby Weather Stations

Elev 167 ft 40.13 °N, 75.00 °W | Updated 7 minutes ago

Partly Cloudy
Partly Cloudy
75.7 °F
Feels Like 77 °F
N
0.0
Wind Variable Wind from SE

Today
High -- | Low -- °F
--% Chance of Precip.
Yesterday
High -- | Low -- °F
Precip. -- in
6:24 AM 7:36 PM
Full, 100% visible
Pressure 30.11 in
Visibility 10.0 miles
Clouds Few 5000 ft
Heat Index 77 °F
Dew Point 66 °F
Humidity 71%
Rainfall 0.00 in
Snow Depth Not available.
UV 0 out of 12
Pollen 9.80 out of 12
Air Quality Not available.
Flu Activity Not available.
METAR KPNE 292354Z AUTO 24006KT 10SM FEW050 27/16 A3011 RMK AO2 SLP195 T02720156 10311 20272 55003 TSNO
Pressure 30.11 in
Visibility 10.0 miles
Clouds Few 5000 ft
Heat Index 77 °F
Dew Point 66 °F
Humidity 71%
Rainfall 0.00 in
Snow Depth Not available.
UV 0 out of 12
Pollen 9.80 out of 12
Air Quality Not available.
Flu Activity Not available.
METAR KPNE 292354Z AUTO 24006KT 10SM FEW050 27/16 A3011 RMK AO2 SLP195 T02720156 10311 20272 55003 TSNO

10-Day Weather Forecast

×

Almanac

Astronomy

Aug. 29, 2015 Rise Set
Actual Time
Civil Twilight
Nautical Twilight
Astronomical Twilight
Moon
Length of Visible Light
Length of Day
Tomorrow will be .
, % of the Moon is Illuminated

Today's Extremes

State Highs State Lows

Community

WunderPhotos

Upload Photos

1,850,794 photos uploaded!

WunderBlogs® & News

Nearby

Air Quality

  Air Quality AQ Index Pollutant
Not available.

Snow Depth

Station Depth Elevation

Earthquake Activity

City Distance Mag. Time & Date
Minimum magnitude displayed is 2.5.

Coastal Water Temperatures

Place Temperature

Stations

Nearby Weather Stations

Station Location Temp. Windchill Dew Point Humidity Wind Precip. Elev Updated Type